Time;durP1;ratioP1;P1;durP2;ratioP2;P2;SDS_P1;SDS_P2;PMS_P1;PMS_P2;Temp;Humidity;BMP_temperature;BMP_pressure;BME280_temperature;BME280_humidity;BME280_pressure;Samples;Min_cycle;Max_cycle;Signal;HPM_P1;HPM_P2
2023/06/02 00:01:31;;;;;;;5.57;4.50;;;21.40;45.40;;;;;;5068553;28;20479;-86
2023/06/02 00:03:59;;;;;;;6.97;4.53;;;21.50;45.90;;;;;;5048975;28;20562;-85
2023/06/02 00:06:30;;;;;;;5.70;4.40;;;21.40;45.10;;;;;;5058525;28;20568;-84
2023/06/02 00:08:59;;;;;;;9.10;4.90;;;21.60;45.00;;;;;;5027356;28;20448;-83
2023/06/02 00:11:27;;;;;;;7.23;4.93;;;21.30;45.40;;;;;;5049618;28;20458;-86
2023/06/02 00:13:54;;;;;;;6.80;4.53;;;21.20;45.50;;;;;;5052674;28;20522;-86
2023/06/02 00:16:21;;;;;;;7.93;4.63;;;21.30;45.60;;;;;;5045378;28;20467;-87
2023/06/02 00:18:52;;;;;;;5.93;4.60;;;21.20;45.70;;;;;;5050025;28;21023;-84
2023/06/02 00:21:20;;;;;;;6.43;4.47;;;21.10;45.50;;;;;;5056653;28;20456;-87
2023/06/02 00:23:48;;;;;;;5.50;4.60;;;20.60;46.70;;;;;;5037966;28;21075;-84
2023/06/02 00:26:15;;;;;;;6.57;4.23;;;20.40;47.10;;;;;;5021106;28;20476;-84
2023/06/02 00:28:45;;;;;;;5.30;3.77;;;20.10;47.80;;;;;;5030572;28;20484;-86
2023/06/02 00:31:12;;;;;;;7.23;4.37;;;20.30;47.30;;;;;;5053465;28;20452;-86
2023/06/02 00:33:39;;;;;;;6.00;3.57;;;20.30;47.60;;;;;;5074168;28;20474;-84
2023/06/02 00:36:06;;;;;;;4.13;3.73;;;20.40;47.40;;;;;;5052582;28;20567;-84
2023/06/02 00:38:33;;;;;;;4.57;4.10;;;20.50;47.20;;;;;;5031635;28;20535;-86
2023/06/02 00:41:00;;;;;;;5.23;3.63;;;20.50;47.00;;;;;;5038540;28;20448;-85
2023/06/02 00:50:44;;;;;;;5.47;4.77;;;20.40;46.50;;;;;;4925240;28;20548;-82
2023/06/02 00:53:12;;;;;;;5.93;4.43;;;20.00;47.50;;;;;;4884605;29;20786;-83
2023/06/02 00:55:39;;;;;;;6.90;4.67;;;19.90;47.60;;;;;;4893443;29;21311;-84
2023/06/02 00:58:07;;;;;;;6.13;4.13;;;19.70;48.20;;;;;;4921354;29;20465;-83
2023/06/02 01:00:36;;;;;;;5.83;4.73;;;19.80;48.20;;;;;;4921100;29;20462;-84
2023/06/02 01:03:04;;;;;;;5.67;4.33;;;19.90;47.70;;;;;;4932635;28;20450;-83
2023/06/02 01:05:31;;;;;;;5.87;4.80;;;20.00;47.50;;;;;;4909964;29;21045;-85
2023/06/02 01:08:03;;;;;;;4.40;3.90;;;20.00;47.30;;;;;;4918961;29;20487;-82
2023/06/02 01:10:31;;;;;;;4.43;4.03;;;20.10;47.20;;;;;;4925635;29;20470;-83
2023/06/02 01:12:59;;;;;;;6.70;4.50;;;20.30;46.50;;;;;;4938176;28;20477;-83
2023/06/02 01:15:25;;;;;;;10.60;4.60;;;20.10;46.90;;;;;;4925203;29;20477;-81
2023/06/02 01:17:55;;;;;;;5.60;4.20;;;20.10;47.50;;;;;;4925515;29;20626;-84
2023/06/02 01:20:23;;;;;;;7.40;5.07;;;19.90;47.10;;;;;;4922109;28;20458;-85
2023/06/02 01:23:04;;;;;;;6.53;5.17;;;19.60;47.60;;;;;;4909016;29;20467;-83
2023/06/02 01:25:36;;;;;;;6.30;4.40;;;19.40;48.00;;;;;;4929886;29;20474;-85
2023/06/02 01:28:04;;;;;;;6.03;4.13;;;19.60;47.30;;;;;;4916804;29;20485;-84
2023/06/02 01:30:32;;;;;;;4.73;4.27;;;19.50;47.80;;;;;;4931227;29;20466;-83
2023/06/02 01:33:07;;;;;;;4.63;3.60;;;19.50;48.00;;;;;;4929068;29;20479;-83
2023/06/02 01:35:42;;;;;;;4.63;3.40;;;19.50;47.80;;;;;;4942330;28;21007;-84
2023/06/02 01:38:13;;;;;;;5.07;4.30;;;19.30;48.30;;;;;;4939007;28;21010;-83
2023/06/02 01:40:42;;;;;;;4.50;3.90;;;19.40;48.10;;;;;;4902294;29;20448;-84
2023/06/02 01:43:10;;;;;;;5.47;4.07;;;19.40;47.90;;;;;;4913479;29;20454;-84
2023/06/02 01:45:38;;;;;;;5.20;4.67;;;19.30;48.00;;;;;;4922673;29;20475;-83
2023/06/02 01:48:07;;;;;;;6.10;4.10;;;19.20;48.40;;;;;;4904938;29;20462;-82
2023/06/02 01:50:37;;;;;;;5.80;4.33;;;19.20;48.40;;;;;;4908369;29;20451;-83
2023/06/02 01:53:04;;;;;;;5.03;4.40;;;19.00;48.40;;;;;;4924628;29;20469;-84
2023/06/02 01:55:33;;;;;;;5.40;4.60;;;18.90;48.90;;;;;;4922661;29;20475;-84
2023/06/02 01:58:02;;;;;;;5.80;3.80;;;18.80;49.10;;;;;;4929828;29;20542;-83
2023/06/02 02:00:30;;;;;;;6.97;4.57;;;18.90;48.90;;;;;;4907667;29;20498;-83
2023/06/02 02:02:58;;;;;;;5.17;4.30;;;18.80;49.00;;;;;;4916663;29;20447;-82
2023/06/02 02:05:25;;;;;;;5.60;4.07;;;18.50;49.30;;;;;;4921143;29;20474;-83
2023/06/02 02:07:52;;;;;;;5.20;4.07;;;18.80;49.20;;;;;;4929654;28;20485;-85
2023/06/02 02:10:19;;;;;;;5.23;4.70;;;18.80;49.20;;;;;;4927455;28;20571;-84
2023/06/02 02:12:46;;;;;;;5.23;4.60;;;18.90;48.90;;;;;;4921584;29;21001;-84
2023/06/02 02:15:15;;;;;;;4.73;3.77;;;19.00;48.40;;;;;;4920700;29;20855;-84
2023/06/02 02:17:47;;;;;;;4.90;4.17;;;18.80;48.10;;;;;;4920750;29;20503;-84
2023/06/02 02:20:17;;;;;;;4.50;4.10;;;18.70;48.60;;;;;;4898072;28;20822;-84
2023/06/02 02:22:45;;;;;;;11.50;4.60;;;18.70;49.20;;;;;;4904830;29;20462;-82
2023/06/02 02:25:13;;;;;;;6.67;4.20;;;18.80;48.90;;;;;;4897761;29;20463;-84
2023/06/02 02:27:40;;;;;;;7.10;4.40;;;19.00;48.30;;;;;;4904696;29;20749;-83
2023/06/02 02:30:08;;;;;;;5.80;4.07;;;18.80;48.60;;;;;;4904777;29;20479;-82
2023/06/02 02:32:39;;;;;;;6.93;4.37;;;18.60;49.30;;;;;;4922392;29;20459;-83
2023/06/02 02:35:06;;;;;;;5.27;4.00;;;18.80;49.00;;;;;;4928267;28;20489;-82
2023/06/02 02:37:35;;;;;;;6.10;4.27;;;18.90;48.30;;;;;;4927960;29;20779;-84
2023/06/02 02:40:04;;;;;;;5.47;4.73;;;18.80;48.30;;;;;;4928175;28;20454;-82
2023/06/02 02:42:33;;;;;;;4.83;4.20;;;18.60;48.70;;;;;;4900833;29;20451;-86
2023/06/02 02:45:01;;;;;;;5.20;4.67;;;18.50;49.00;;;;;;4928570;28;20994;-85
2023/06/02 02:47:30;;;;;;;6.70;4.63;;;18.20;49.50;;;;;;4906311;29;20450;-84
2023/06/02 02:49:58;;;;;;;7.30;4.67;;;18.20;49.80;;;;;;4917265;29;20856;-82
2023/06/02 02:52:27;;;;;;;8.80;4.40;;;18.40;49.40;;;;;;4920503;29;20857;-84
2023/06/02 02:54:54;;;;;;;7.13;4.97;;;18.30;48.60;;;;;;4917561;28;20463;-84
2023/06/02 02:57:21;;;;;;;5.97;4.70;;;18.20;49.40;;;;;;4912783;29;20547;-84
2023/06/02 02:59:49;;;;;;;4.77;3.80;;;18.20;49.20;;;;;;4919241;29;20990;-84
2023/06/02 03:02:16;;;;;;;6.23;5.10;;;18.20;49.40;;;;;;4939996;28;20804;-84
2023/06/02 03:04:43;;;;;;;5.83;4.10;;;18.30;49.10;;;;;;4908948;29;20459;-86
2023/06/02 03:07:11;;;;;;;5.63;5.00;;;18.40;49.10;;;;;;4912979;29;20481;-84
2023/06/02 03:09:38;;;;;;;4.67;4.07;;;18.50;48.80;;;;;;4902083;29;20476;-83
2023/06/02 03:12:06;;;;;;;4.87;4.10;;;18.60;48.40;;;;;;4921926;29;20541;-84
2023/06/02 03:14:33;;;;;;;5.30;4.53;;;18.40;48.70;;;;;;4925690;29;20537;-84
2023/06/02 03:17:03;;;;;;;7.47;4.93;;;18.20;48.40;;;;;;4908030;29;20517;-84
2023/06/02 03:19:30;;;;;;;5.63;4.37;;;18.00;49.10;;;;;;4901488;29;20461;-83
2023/06/02 03:21:58;;;;;;;5.10;4.17;;;18.10;48.90;;;;;;4916996;29;21039;-84
2023/06/02 03:24:27;;;;;;;4.70;4.17;;;18.10;49.10;;;;;;4913782;29;20451;-83
2023/06/02 03:26:56;;;;;;;4.80;4.30;;;17.90;49.30;;;;;;4918524;29;20481;-85
2023/06/02 03:29:23;;;;;;;5.73;4.93;;;18.10;49.50;;;;;;4919269;29;20956;-85
2023/06/02 03:31:52;;;;;;;4.53;3.67;;;18.20;49.20;;;;;;4925760;29;20499;-81
2023/06/02 03:34:22;;;;;;;4.80;3.90;;;18.20;49.00;;;;;;4895886;29;20526;-85
2023/06/02 03:36:50;;;;;;;8.20;4.57;;;18.30;48.90;;;;;;4933725;28;20484;-85
2023/06/02 03:39:17;;;;;;;8.50;4.57;;;18.40;48.50;;;;;;4915105;29;20469;-82
2023/06/02 03:41:46;;;;;;;5.13;4.63;;;18.40;48.40;;;;;;4921600;29;20505;-83
2023/06/02 03:44:15;;;;;;;5.80;4.43;;;18.40;48.60;;;;;;4916268;28;20976;-84
2023/06/02 03:46:42;;;;;;;6.30;4.90;;;18.40;48.50;;;;;;4921068;29;21044;-84
2023/06/02 03:49:09;;;;;;;6.10;4.73;;;18.40;48.60;;;;;;4905007;29;20461;-84
2023/06/02 03:51:36;;;;;;;8.27;4.57;;;18.30;48.80;;;;;;4932873;29;20464;-83
2023/06/02 03:54:05;;;;;;;7.03;4.30;;;18.30;48.70;;;;;;4916818;29;20553;-83
2023/06/02 03:56:33;;;;;;;7.30;4.43;;;18.30;48.50;;;;;;4920008;29;20470;-83
2023/06/02 03:59:02;;;;;;;4.90;4.33;;;18.30;48.60;;;;;;4948579;28;21018;-83
2023/06/02 04:01:31;;;;;;;4.80;4.30;;;18.30;48.50;;;;;;4904355;28;20535;-84
2023/06/02 04:03:59;;;;;;;4.77;4.27;;;18.30;49.00;;;;;;4912384;29;20459;-82
2023/06/02 04:06:28;;;;;;;5.80;4.87;;;18.30;49.30;;;;;;4921636;28;20853;-83
2023/06/02 04:08:55;;;;;;;5.97;5.37;;;18.30;49.30;;;;;;4900137;29;20459;-85
2023/06/02 04:11:23;;;;;;;4.80;4.40;;;18.20;49.50;;;;;;4934575;29;21019;-84
2023/06/02 04:13:51;;;;;;;6.20;4.80;;;18.20;49.90;;;;;;4914982;29;20847;-84
2023/06/02 04:16:19;;;;;;;4.40;4.00;;;18.20;50.00;;;;;;4921841;29;20573;-84
2023/06/02 04:18:47;;;;;;;8.20;4.90;;;18.20;50.20;;;;;;4920517;29;20459;-84
2023/06/02 04:21:14;;;;;;;5.50;4.53;;;18.20;50.40;;;;;;4925988;29;20457;-84
2023/06/02 04:23:43;;;;;;;6.40;5.23;;;18.30;50.50;;;;;;4918173;29;20467;-84
2023/06/02 04:26:10;;;;;;;6.60;5.77;;;18.20;50.50;;;;;;4918121;29;20477;-82
2023/06/02 04:28:37;;;;;;;6.03;4.87;;;18.20;50.70;;;;;;4921074;29;20450;-83
2023/06/02 04:31:05;;;;;;;9.93;5.07;;;18.20;50.80;;;;;;4906512;29;20453;-85
2023/06/02 04:33:38;;;;;;;6.10;4.60;;;18.20;51.10;;;;;;4911897;29;21124;-83
2023/06/02 04:36:10;;;;;;;6.20;4.70;;;18.20;50.90;;;;;;4904440;29;21007;-83
2023/06/02 04:38:38;;;;;;;5.00;4.50;;;18.10;50.10;;;;;;4905904;29;21082;-83
2023/06/02 04:41:07;;;;;;;6.80;5.20;;;18.00;50.20;;;;;;4933417;29;20759;-83
2023/06/02 04:43:34;;;;;;;4.87;4.33;;;17.90;50.60;;;;;;4924886;29;20459;-85
2023/06/02 04:46:06;;;;;;;8.50;4.63;;;18.00;50.70;;;;;;4935681;28;20565;-84
2023/06/02 04:48:33;;;;;;;7.03;5.60;;;18.00;50.60;;;;;;4905843;29;20450;-84
2023/06/02 04:51:02;;;;;;;5.60;4.83;;;17.90;50.60;;;;;;4913543;29;20455;-84
2023/06/02 04:53:29;;;;;;;6.23;5.37;;;18.00;50.70;;;;;;4916229;29;20466;-84
2023/06/02 04:55:57;;;;;;;6.23;5.03;;;18.00;50.70;;;;;;4912465;29;20515;-85
2023/06/02 04:58:25;;;;;;;7.47;6.20;;;18.00;50.60;;;;;;4913259;29;20461;-85
2023/06/02 05:00:52;;;;;;;7.30;5.53;;;18.10;50.70;;;;;;4919856;29;20479;-84
2023/06/02 05:03:20;;;;;;;7.40;5.10;;;18.20;50.60;;;;;;4902316;29;20455;-84
2023/06/02 05:05:47;;;;;;;7.00;5.37;;;18.20;50.60;;;;;;4907220;29;20470;-84
2023/06/02 05:08:16;;;;;;;8.27;6.53;;;18.30;50.60;;;;;;4903810;29;20454;-84
2023/06/02 05:10:44;;;;;;;10.03;5.00;;;18.30;50.30;;;;;;4906397;29;21063;-84
2023/06/02 05:13:13;;;;;;;6.10;5.47;;;18.30;50.50;;;;;;4920212;29;20889;-83
2023/06/02 05:15:40;;;;;;;7.23;5.20;;;18.30;50.60;;;;;;4914820;29;20478;-83
2023/06/02 05:18:07;;;;;;;7.43;5.40;;;18.40;50.60;;;;;;4932066;29;20459;-83
2023/06/02 05:20:34;;;;;;;5.83;5.27;;;18.50;50.70;;;;;;4927912;28;20454;-83
2023/06/02 05:23:01;;;;;;;6.43;5.63;;;18.40;50.50;;;;;;4918514;29;20454;-83
2023/06/02 05:25:29;;;;;;;6.60;5.27;;;18.30;50.50;;;;;;4909024;29;20482;-83
2023/06/02 05:27:56;;;;;;;7.63;5.37;;;18.40;50.90;;;;;;4896822;29;20455;-84
2023/06/02 05:30:23;;;;;;;7.43;5.70;;;18.50;50.40;;;;;;4928232;29;20446;-83
2023/06/02 05:32:51;;;;;;;16.37;5.47;;;18.50;50.10;;;;;;4914902;29;20493;-83
2023/06/02 05:35:18;;;;;;;12.60;5.70;;;18.40;50.10;;;;;;4910540;29;20487;-83
2023/06/02 05:37:45;;;;;;;8.90;5.47;;;18.40;50.30;;;;;;4906815;29;20458;-84
2023/06/02 05:40:13;;;;;;;8.80;5.90;;;18.10;50.10;;;;;;4921688;29;20465;-83
2023/06/02 05:42:42;;;;;;;6.90;5.50;;;18.00;50.60;;;;;;4918090;29;20467;-84
2023/06/02 05:45:09;;;;;;;7.80;5.10;;;18.10;50.90;;;;;;4918555;29;20995;-83
2023/06/02 05:47:37;;;;;;;10.63;5.90;;;18.20;50.50;;;;;;4929002;29;20889;-83
2023/06/02 05:50:06;;;;;;;8.33;5.40;;;18.30;51.10;;;;;;4899802;29;20454;-84
2023/06/02 05:52:33;;;;;;;11.23;5.33;;;18.30;50.00;;;;;;4900689;29;20457;-83
2023/06/02 05:55:00;;;;;;;8.60;5.20;;;18.50;49.60;;;;;;4918661;28;20896;-84
2023/06/02 05:57:27;;;;;;;9.80;4.87;;;18.50;49.50;;;;;;4930920;29;20510;-83
2023/06/02 05:59:56;;;;;;;8.70;5.43;;;18.70;49.80;;;;;;4923426;29;20871;-83
2023/06/02 06:02:23;;;;;;;8.00;5.97;;;18.80;49.00;;;;;;4919253;29;20462;-85
2023/06/02 06:04:50;;;;;;;7.37;5.40;;;18.70;48.50;;;;;;4912699;28;20459;-84
2023/06/02 06:07:17;;;;;;;11.67;6.10;;;18.50;49.00;;;;;;4899709;29;20450;-85
2023/06/02 06:09:44;;;;;;;6.03;5.00;;;18.70;49.10;;;;;;4921001;29;20463;-85
2023/06/02 06:12:11;;;;;;;10.47;5.30;;;18.90;49.20;;;;;;4920196;29;20982;-85
2023/06/02 06:14:39;;;;;;;8.63;5.50;;;19.10;48.80;;;;;;4922210;29;20862;-84
2023/06/02 06:17:07;;;;;;;5.53;4.67;;;19.10;48.30;;;;;;4915883;29;21067;-84
2023/06/02 06:19:34;;;;;;;8.57;4.90;;;19.40;48.40;;;;;;4898969;29;20457;-84
2023/06/02 06:22:02;;;;;;;6.70;5.07;;;19.50;47.50;;;;;;4913778;29;20899;-84
2023/06/02 06:24:30;;;;;;;6.00;4.60;;;19.50;47.20;;;;;;4913244;29;20451;-83
2023/06/02 06:26:58;;;;;;;11.37;5.43;;;19.70;47.50;;;;;;4914922;29;20972;-82
2023/06/02 06:29:24;;;;;;;10.87;5.63;;;19.70;46.80;;;;;;4927315;29;20454;-83
2023/06/02 06:31:52;;;;;;;10.23;5.93;;;19.70;46.40;;;;;;4904796;29;21026;-84
2023/06/02 06:34:20;;;;;;;5.73;5.07;;;19.90;46.40;;;;;;4912609;29;20455;-82
2023/06/02 06:36:48;;;;;;;6.13;5.40;;;20.10;46.50;;;;;;4920513;29;20473;-83
2023/06/02 06:39:15;;;;;;;6.83;5.50;;;19.80;45.50;;;;;;4894077;29;20451;-82
2023/06/02 06:41:43;;;;;;;9.73;5.13;;;19.70;46.30;;;;;;4913364;29;20458;-84
2023/06/02 06:44:22;;;;;;;7.37;4.60;;;19.70;46.60;;;;;;4908181;29;20462;-83
2023/06/02 06:46:49;;;;;;;8.00;4.37;;;19.60;46.00;;;;;;4919736;29;20804;-83
2023/06/02 06:49:16;;;;;;;5.63;4.63;;;19.60;47.20;;;;;;4916486;29;20466;-83
2023/06/02 06:51:45;;;;;;;5.40;4.90;;;20.00;46.70;;;;;;4931058;29;20458;-82
2023/06/02 06:54:15;;;;;;;5.73;5.07;;;20.20;46.10;;;;;;4904416;29;20463;-83
2023/06/02 06:56:43;;;;;;;5.60;5.00;;;20.30;45.60;;;;;;4919480;29;20943;-83
2023/06/02 06:59:11;;;;;;;7.93;5.20;;;20.30;45.80;;;;;;4904781;29;20832;-83
2023/06/02 07:01:38;;;;;;;7.63;4.97;;;20.40;45.50;;;;;;4930329;29;20471;-82
2023/06/02 07:04:05;;;;;;;6.87;5.50;;;20.20;44.90;;;;;;4929507;29;20920;-84
2023/06/02 07:06:33;;;;;;;8.17;5.70;;;19.90;45.50;;;;;;4918539;29;21919;-83
2023/06/02 07:09:01;;;;;;;8.60;5.53;;;20.20;45.80;;;;;;4928354;28;20558;-83
2023/06/02 07:11:28;;;;;;;7.80;5.77;;;20.50;45.20;;;;;;4911429;29;20574;-83
2023/06/02 07:13:55;;;;;;;8.17;4.83;;;20.40;45.20;;;;;;4910724;29;20454;-83
2023/06/02 07:16:22;;;;;;;8.70;5.30;;;20.60;45.30;;;;;;4916437;29;20475;-84
2023/06/02 07:18:49;;;;;;;7.17;4.80;;;20.70;45.00;;;;;;4922247;29;20466;-85
2023/06/02 07:21:16;;;;;;;8.83;5.00;;;20.80;44.40;;;;;;4931649;29;20461;-85
2023/06/02 07:23:43;;;;;;;6.13;4.60;;;20.70;44.00;;;;;;4933484;29;20470;-83
2023/06/02 07:26:11;;;;;;;10.93;5.00;;;20.60;44.40;;;;;;4905079;29;20481;-85
2023/06/02 07:28:39;;;;;;;5.57;5.03;;;20.80;44.80;;;;;;4931087;29;20827;-84
2023/06/02 07:31:06;;;;;;;6.00;4.80;;;20.90;44.20;;;;;;4922761;29;20580;-84
2023/06/02 07:33:32;;;;;;;8.53;5.23;;;21.10;44.00;;;;;;4919296;29;20459;-85
2023/06/02 07:36:00;;;;;;;8.10;5.20;;;21.20;43.80;;;;;;4918232;29;20483;-84
2023/06/02 07:38:27;;;;;;;7.53;5.13;;;21.20;43.60;;;;;;4915874;29;20458;-85
2023/06/02 07:40:54;;;;;;;7.90;5.70;;;21.20;43.60;;;;;;4932168;29;20840;-84
2023/06/02 07:43:22;;;;;;;9.90;5.70;;;21.20;43.80;;;;;;4935955;29;20542;-83
2023/06/02 07:45:49;;;;;;;5.30;4.50;;;21.20;43.90;;;;;;4925582;29;20480;-85
2023/06/02 07:48:16;;;;;;;6.47;4.70;;;21.20;44.10;;;;;;4931867;29;20447;-84
2023/06/02 07:50:43;;;;;;;7.03;5.70;;;21.30;43.40;;;;;;4935202;29;20458;-84
2023/06/02 07:53:10;;;;;;;8.60;5.50;;;21.40;43.90;;;;;;4935559;29;20474;-85
2023/06/02 07:55:37;;;;;;;8.03;5.27;;;21.50;42.80;;;;;;4907803;29;20481;-86
2023/06/02 07:58:04;;;;;;;10.10;5.47;;;21.60;43.00;;;;;;4921465;29;20454;-86
2023/06/02 08:00:32;;;;;;;8.30;5.10;;;21.80;43.10;;;;;;4931543;29;20459;-84
2023/06/02 08:03:00;;;;;;;6.50;5.47;;;21.60;42.50;;;;;;4918527;29;20451;-85
2023/06/02 08:05:27;;;;;;;5.90;5.27;;;21.50;42.90;;;;;;4917670;29;20474;-84
2023/06/02 08:07:54;;;;;;;6.73;5.20;;;21.70;42.80;;;;;;4931939;28;20866;-85
2023/06/02 08:10:21;;;;;;;7.23;5.00;;;21.60;43.00;;;;;;4916478;29;20478;-85
2023/06/02 08:12:48;;;;;;;6.67;5.50;;;21.90;42.80;;;;;;4932658;29;20938;-85
2023/06/02 08:15:15;;;;;;;5.40;4.50;;;21.90;42.30;;;;;;4914538;29;20482;-85
2023/06/02 08:17:43;;;;;;;7.07;5.03;;;21.70;43.40;;;;;;4925184;29;20455;-85
2023/06/02 08:20:11;;;;;;;11.00;5.10;;;21.80;42.80;;;;;;4909340;29;20450;-85
2023/06/02 08:22:37;;;;;;;6.17;5.40;;;22.00;43.30;;;;;;4916474;29;20458;-84
2023/06/02 08:25:07;;;;;;;8.17;5.23;;;22.00;42.50;;;;;;4901540;28;20470;-85
2023/06/02 08:27:34;;;;;;;11.37;4.77;;;22.20;42.00;;;;;;4936356;29;20458;-85
2023/06/02 08:30:01;;;;;;;10.40;5.80;;;22.40;41.70;;;;;;4919270;29;20967;-84
2023/06/02 08:32:29;;;;;;;5.60;5.00;;;22.40;41.20;;;;;;4926614;29;20472;-83
2023/06/02 08:35:01;;;;;;;7.63;5.67;;;22.40;41.30;;;;;;4929483;29;20478;-82
2023/06/02 08:37:29;;;;;;;5.07;4.57;;;22.70;41.00;;;;;;4920584;29;20470;-84
2023/06/02 08:39:57;;;;;;;10.00;5.10;;;22.60;41.40;;;;;;4933368;29;20696;-84
2023/06/02 08:42:26;;;;;;;6.17;4.90;;;22.50;42.40;;;;;;4932003;29;20473;-84
2023/06/02 08:44:54;;;;;;;9.23;5.43;;;22.70;41.60;;;;;;4929814;28;20561;-84
2023/06/02 08:47:24;;;;;;;7.50;4.93;;;22.70;40.40;;;;;;4907145;29;20470;-84
2023/06/02 08:49:52;;;;;;;6.83;5.03;;;22.80;40.30;;;;;;4921495;29;20457;-84
2023/06/02 08:52:23;;;;;;;6.23;5.27;;;22.70;41.50;;;;;;4916921;29;20466;-84
2023/06/02 08:54:50;;;;;;;6.17;4.73;;;22.60;41.40;;;;;;4928401;28;20446;-84
2023/06/02 08:57:22;;;;;;;8.00;5.10;;;22.80;40.90;;;;;;4914414;29;20528;-84
2023/06/02 08:59:50;;;;;;;5.80;4.70;;;22.50;40.00;;;;;;4914041;29;20459;-84
2023/06/02 09:02:18;;;;;;;9.00;5.97;;;22.70;41.00;;;;;;4937886;29;20557;-83
2023/06/02 09:04:45;;;;;;;6.07;5.40;;;22.70;40.40;;;;;;4914152;29;20485;-83
2023/06/02 09:07:20;;;;;;;5.33;4.83;;;23.00;40.20;;;;;;4932558;29;21158;-84
2023/06/02 09:09:51;;;;;;;8.80;4.93;;;23.40;40.40;;;;;;4919336;29;21023;-83
2023/06/02 09:12:19;;;;;;;8.23;5.33;;;23.40;39.30;;;;;;4916945;29;20550;-84
2023/06/02 09:14:48;;;;;;;6.30;4.63;;;23.40;39.70;;;;;;4905071;29;20976;-83
2023/06/02 09:17:25;;;;;;;5.00;4.53;;;23.60;39.50;;;;;;4921204;29;20541;-82
2023/06/02 09:19:53;;;;;;;5.63;4.27;;;23.90;39.50;;;;;;4927960;29;20509;-83
2023/06/02 09:22:20;;;;;;;9.10;4.80;;;24.00;39.40;;;;;;4897187;29;21000;-83
2023/06/02 09:24:48;;;;;;;5.83;5.10;;;24.00;38.60;;;;;;4927842;29;20466;-83
2023/06/02 09:27:17;;;;;;;7.43;4.20;;;24.00;37.90;;;;;;4918842;29;20500;-83
2023/06/02 09:29:46;;;;;;;7.13;4.67;;;24.20;39.20;;;;;;4904185;29;20814;-83
2023/06/02 09:32:15;;;;;;;5.03;4.50;;;24.50;38.90;;;;;;4932689;29;20462;-83
2023/06/02 09:34:43;;;;;;;5.20;4.67;;;24.50;37.90;;;;;;4906655;29;20450;-83
2023/06/02 09:37:12;;;;;;;5.23;4.77;;;24.30;38.90;;;;;;4929367;29;20573;-83
2023/06/02 09:39:43;;;;;;;6.87;5.60;;;24.20;37.80;;;;;;4937056;29;20458;-84
2023/06/02 09:42:13;;;;;;;5.50;4.07;;;24.40;37.80;;;;;;4919861;29;20534;-83
2023/06/02 09:44:40;;;;;;;6.20;4.97;;;24.60;38.20;;;;;;4915969;29;20460;-84
2023/06/02 09:47:21;;;;;;;7.90;5.00;;;24.80;38.40;;;;;;4940074;28;20473;-83
2023/06/02 09:49:48;;;;;;;13.17;4.60;;;24.80;37.00;;;;;;4910702;29;20450;-83
2023/06/02 09:52:15;;;;;;;8.33;4.80;;;24.40;37.40;;;;;;4904367;29;20562;-82
2023/06/02 09:54:44;;;;;;;8.27;4.60;;;24.50;37.60;;;;;;4919714;29;20463;-83
2023/06/02 09:57:13;;;;;;;5.20;4.77;;;24.50;38.10;;;;;;4931980;29;20485;-83
2023/06/02 09:59:41;;;;;;;5.13;3.97;;;24.70;37.90;;;;;;4899338;29;20465;-83
2023/06/02 10:02:09;;;;;;;6.47;4.80;;;25.00;36.90;;;;;;4939513;28;20446;-83
2023/06/02 10:04:37;;;;;;;5.30;4.80;;;25.00;36.90;;;;;;4928732;29;20462;-83
2023/06/02 10:07:16;;;;;;;8.77;4.40;;;25.30;37.30;;;;;;4903180;29;20478;-83
2023/06/02 10:09:55;;;;;;;6.70;4.80;;;25.70;36.00;;;;;;4901552;29;20465;-83
2023/06/02 10:12:37;;;;;;;7.63;4.93;;;25.90;35.80;;;;;;4933547;29;20541;-84
2023/06/02 10:15:42;;;;;;;7.83;4.57;;;25.90;35.80;;;;;;4922991;28;20873;-84
2023/06/02 10:18:23;;;;;;;7.70;5.40;;;25.70;35.70;;;;;;4920321;29;20458;-84
2023/06/02 10:21:01;;;;;;;5.13;4.30;;;25.70;35.80;;;;;;4931258;29;20948;-85
2023/06/02 10:23:38;;;;;;;7.20;4.97;;;26.20;35.80;;;;;;4904322;29;20509;-84
2023/06/02 10:26:21;;;;;;;7.60;4.27;;;26.50;34.90;;;;;;4922931;29;20489;-84
2023/06/02 10:28:50;;;;;;;7.53;4.40;;;26.50;34.90;;;;;;4906435;29;20564;-84
2023/06/02 10:31:17;;;;;;;4.77;4.23;;;26.60;34.10;;;;;;4918015;29;20456;-84
2023/06/02 10:33:46;;;;;;;5.90;4.47;;;26.40;34.20;;;;;;4916054;29;20454;-84
2023/06/02 10:36:17;;;;;;;5.17;4.67;;;26.20;34.40;;;;;;4922968;29;20494;-84
2023/06/02 10:38:45;;;;;;;8.50;5.20;;;26.40;35.20;;;;;;4905063;29;20589;-84
2023/06/02 10:41:13;;;;;;;5.60;4.50;;;26.30;34.60;;;;;;4908051;29;20450;-84
2023/06/02 10:43:40;;;;;;;7.87;5.10;;;26.10;33.60;;;;;;4918965;29;20443;-82
2023/06/02 10:46:19;;;;;;;8.63;4.07;;;26.30;35.00;;;;;;4914626;29;20470;-84
2023/06/02 10:48:45;;;;;;;7.13;4.10;;;26.40;34.10;;;;;;4921602;29;20469;-83
2023/06/02 10:51:13;;;;;;;4.67;4.07;;;26.30;34.60;;;;;;4922283;29;20481;-84
2023/06/02 10:54:14;;;;;;;5.90;5.30;;;26.30;34.90;;;;;;4911829;29;20466;-84
2023/06/02 10:56:42;;;;;;;7.37;4.87;;;26.50;33.80;;;;;;4839347;29;20482;-85
2023/06/02 10:59:10;;;;;;;5.00;4.50;;;26.30;33.40;;;;;;4808397;29;20474;-84
2023/06/02 11:01:49;;;;;;;6.37;4.37;;;26.20;34.80;;;;;;4863055;29;20438;-83
2023/06/02 11:04:31;;;;;;;6.07;4.40;;;26.30;34.10;;;;;;4928026;28;20435;-84
2023/06/02 11:07:29;;;;;;;7.80;4.63;;;26.50;33.90;;;;;;4899099;29;20580;-83
2023/06/02 11:09:58;;;;;;;7.17;3.60;;;27.10;32.80;;;;;;4937539;29;20493;-84
2023/06/02 11:13:08;;;;;;;6.60;4.40;;;27.10;33.70;;;;;;4921416;29;20550;-83
2023/06/02 11:15:35;;;;;;;7.13;4.00;;;27.20;32.60;;;;;;4873219;29;20478;-84
2023/06/02 11:18:41;;;;;;;7.10;4.27;;;27.10;31.90;;;;;;4901183;29;20518;-84
2023/06/02 11:21:18;;;;;;;6.87;4.90;;;26.60;32.50;;;;;;4939398;29;20455;-84
2023/06/02 11:23:45;;;;;;;9.57;4.70;;;26.50;33.00;;;;;;4921574;29;20553;-84
2023/06/02 11:26:15;;;;;;;6.57;4.13;;;26.40;32.80;;;;;;4905463;29;20471;-85
2023/06/02 11:28:42;;;;;;;5.97;4.00;;;26.70;33.20;;;;;;4919987;29;20555;-84
2023/06/02 11:31:11;;;;;;;9.60;4.40;;;27.00;32.90;;;;;;4921336;29;20447;-83
2023/06/02 11:33:41;;;;;;;10.93;4.43;;;27.10;33.20;;;;;;4930347;29;20460;-84
2023/06/02 11:36:09;;;;;;;6.13;4.43;;;27.20;32.50;;;;;;4921950;29;20666;-84
2023/06/02 11:38:38;;;;;;;5.33;4.67;;;27.10;32.00;;;;;;4903970;29;20924;-85
2023/06/02 11:41:09;;;;;;;5.67;4.13;;;27.00;32.30;;;;;;4931294;29;20538;-84
2023/06/02 11:43:37;;;;;;;8.00;5.30;;;27.00;33.30;;;;;;4918849;29;21573;-84
2023/06/02 11:46:08;;;;;;;4.20;3.80;;;27.00;32.20;;;;;;4903006;29;20478;-84
2023/06/02 11:48:38;;;;;;;4.70;4.30;;;27.30;33.10;;;;;;4901443;29;21333;-85
2023/06/02 11:51:07;;;;;;;26.53;5.93;;;27.50;31.80;;;;;;4906672;29;20970;-84
2023/06/02 11:53:34;;;;;;;4.00;3.60;;;27.80;31.90;;;;;;4930487;29;20844;-84
2023/06/02 11:56:01;;;;;;;4.70;3.97;;;27.80;30.90;;;;;;4914249;29;20490;-85
2023/06/02 11:58:29;;;;;;;4.67;3.80;;;28.10;31.90;;;;;;4904033;29;20570;-85
2023/06/02 12:01:07;;;;;;;3.27;3.03;;;28.00;30.50;;;;;;4929809;29;20458;-85
2023/06/02 12:03:36;;;;;;;3.90;3.50;;;27.80;31.40;;;;;;4928758;29;20500;-84
2023/06/02 12:06:13;;;;;;;4.40;3.53;;;27.90;31.40;;;;;;4902016;29;20486;-83
2023/06/02 12:08:40;;;;;;;5.87;4.07;;;27.90;30.50;;;;;;4915086;29;20636;-83
2023/06/02 12:11:14;;;;;;;7.30;4.20;;;28.00;31.10;;;;;;4933459;29;20464;-84
2023/06/02 12:13:41;;;;;;;7.27;4.10;;;28.00;30.10;;;;;;4916920;29;21220;-84
2023/06/02 12:16:20;;;;;;;5.67;3.87;;;28.30;31.20;;;;;;4922597;29;20478;-85
2023/06/02 12:18:47;;;;;;;4.10;3.30;;;28.60;31.10;;;;;;4923525;29;20466;-85
2023/06/02 12:21:26;;;;;;;5.57;3.90;;;28.50;31.00;;;;;;4907934;29;21507;-85
2023/06/02 12:23:54;;;;;;;4.40;4.00;;;28.10;30.70;;;;;;4919466;29;20461;-83
2023/06/02 12:26:23;;;;;;;6.20;3.97;;;28.40;31.20;;;;;;4931318;29;20501;-85
2023/06/02 12:28:51;;;;;;;6.90;4.30;;;28.80;30.10;;;;;;4932706;29;20454;-85
2023/06/02 12:31:18;;;;;;;6.50;4.30;;;28.40;29.90;;;;;;4948603;28;21034;-84
2023/06/02 12:33:45;;;;;;;3.50;3.20;;;28.20;30.10;;;;;;4936076;29;20461;-83
2023/06/02 12:36:13;;;;;;;3.93;3.57;;;28.00;31.00;;;;;;4924921;29;20746;-84
2023/06/02 12:38:42;;;;;;;5.13;4.10;;;28.10;30.00;;;;;;4923229;29;20462;-85
2023/06/02 12:41:10;;;;;;;4.03;3.63;;;28.10;30.90;;;;;;4909437;29;20467;-84
2023/06/02 12:43:38;;;;;;;5.07;3.30;;;28.40;29.90;;;;;;4909977;29;20450;-82
2023/06/02 12:46:06;;;;;;;4.33;3.93;;;28.70;29.90;;;;;;4920863;29;20553;-83
2023/06/02 12:48:33;;;;;;;4.53;3.37;;;28.90;30.50;;;;;;4901877;29;20463;-84
2023/06/02 12:51:00;;;;;;;4.23;3.70;;;29.10;28.80;;;;;;4913668;29;20443;-83
2023/06/02 12:53:27;;;;;;;6.83;3.60;;;28.90;28.20;;;;;;4907092;29;20466;-85
2023/06/02 12:55:55;;;;;;;3.47;3.10;;;28.60;29.10;;;;;;4920514;29;20719;-85
2023/06/02 12:58:22;;;;;;;3.73;3.27;;;28.70;28.90;;;;;;4917679;29;21199;-84
2023/06/02 13:00:50;;;;;;;6.30;3.30;;;28.80;29.10;;;;;;4918614;29;20455;-85
2023/06/02 13:03:17;;;;;;;3.83;2.90;;;28.80;28.10;;;;;;4922684;29;20479;-84